Time;durP1;ratioP1;P1;durP2;ratioP2;P2;SDS_P1;SDS_P2;PMS_P1;PMS_P2;Temp;Humidity;BMP_temperature;BMP_pressure;BME280_temperature;BME280_humidity;BME280_pressure;Samples;Min_cycle;Max_cycle;Signal;HPM_P1;HPM_P2
2023/11/04 00:01:34;;;;;;;9.23;1.80;;;8.30;99.90;;;;;;4973641;28;20038;-77
2023/11/04 00:04:20;;;;;;;9.88;2.03;;;8.30;99.90;;;;;;4955820;28;20050;-77
2023/11/04 00:07:07;;;;;;;5.45;1.40;;;8.30;99.90;;;;;;4941827;29;20070;-77
2023/11/04 00:09:52;;;;;;;11.50;1.83;;;8.20;99.90;;;;;;4955716;28;20034;-76
2023/11/04 00:12:38;;;;;;;9.50;1.83;;;8.30;99.90;;;;;;4973516;28;20049;-76
2023/11/04 00:15:24;;;;;;;8.50;1.88;;;8.30;99.90;;;;;;4960850;28;20114;-77
2023/11/04 00:18:10;;;;;;;6.40;1.70;;;8.30;99.90;;;;;;4974268;28;20039;-77
2023/11/04 00:20:56;;;;;;;7.60;1.58;;;8.30;99.90;;;;;;4966977;28;20043;-77
2023/11/04 00:23:42;;;;;;;8.52;2.00;;;8.20;99.90;;;;;;4956285;28;20039;-76
2023/11/04 00:26:28;;;;;;;9.68;1.95;;;8.20;99.90;;;;;;4961133;28;20051;-76
2023/11/04 00:29:14;;;;;;;5.50;2.03;;;8.20;99.90;;;;;;4961227;28;20070;-77
2023/11/04 00:32:00;;;;;;;6.43;1.92;;;8.10;99.90;;;;;;4973914;28;20046;-77
2023/11/04 00:34:46;;;;;;;8.23;1.88;;;8.10;99.90;;;;;;4974040;28;20518;-77
2023/11/04 00:37:33;;;;;;;10.45;2.25;;;8.10;99.90;;;;;;4973755;28;20126;-76
2023/11/04 00:40:19;;;;;;;12.77;2.47;;;8.00;99.90;;;;;;4953609;28;20377;-76
2023/11/04 00:43:05;;;;;;;12.23;1.85;;;8.10;99.90;;;;;;4958964;28;20113;-77
2023/11/04 00:45:51;;;;;;;10.80;1.77;;;8.10;99.90;;;;;;4972688;28;20419;-77
2023/11/04 00:48:38;;;;;;;8.45;1.80;;;8.20;99.90;;;;;;4950196;29;20046;-77
2023/11/04 00:51:24;;;;;;;10.63;1.85;;;8.10;99.90;;;;;;4960417;28;20047;-76
2023/11/04 00:54:10;;;;;;;10.13;2.00;;;8.10;99.90;;;;;;4954200;28;20520;-76
2023/11/04 00:56:57;;;;;;;9.10;2.47;;;8.20;99.90;;;;;;4956678;28;20053;-76
2023/11/04 00:59:43;;;;;;;13.48;2.50;;;8.10;99.90;;;;;;4948169;28;20053;-76
2023/11/04 01:02:29;;;;;;;11.80;2.10;;;8.10;99.90;;;;;;4965725;28;20110;-76
2023/11/04 01:05:15;;;;;;;9.57;1.70;;;8.00;99.90;;;;;;4960987;28;20042;-76
2023/11/04 01:08:01;;;;;;;7.10;2.17;;;8.10;99.90;;;;;;4960620;28;20058;-77
2023/11/04 01:10:47;;;;;;;6.45;2.13;;;8.10;99.90;;;;;;4953142;29;20039;-77
2023/11/04 01:13:34;;;;;;;15.73;3.63;;;8.10;99.90;;;;;;4947504;28;20346;-77
2023/11/04 01:16:20;;;;;;;11.30;2.63;;;8.20;99.90;;;;;;4961964;28;20042;-77
2023/11/04 01:19:06;;;;;;;11.90;2.90;;;8.10;99.90;;;;;;4947054;28;20047;-77
2023/11/04 01:21:52;;;;;;;13.07;3.25;;;8.10;99.90;;;;;;4958350;28;20045;-77
2023/11/04 01:24:38;;;;;;;13.02;3.03;;;8.00;99.90;;;;;;4975609;28;20637;-77
2023/11/04 01:27:24;;;;;;;11.48;2.80;;;8.00;99.90;;;;;;4958056;29;20039;-77
2023/11/04 01:30:10;;;;;;;12.35;2.70;;;8.00;99.90;;;;;;4945294;29;20468;-77
2023/11/04 01:32:57;;;;;;;11.00;2.75;;;8.00;99.90;;;;;;4959386;28;20039;-77
2023/11/04 01:35:43;;;;;;;8.82;2.45;;;7.90;99.90;;;;;;4958982;29;20043;-77
2023/11/04 01:38:29;;;;;;;8.88;2.72;;;7.90;99.90;;;;;;4965601;28;20038;-77
2023/11/04 01:41:15;;;;;;;10.65;2.22;;;7.90;99.90;;;;;;4963694;28;20102;-77
2023/11/04 01:44:01;;;;;;;6.90;2.03;;;7.80;99.90;;;;;;4963276;28;20034;-76
2023/11/04 01:46:47;;;;;;;11.40;2.30;;;7.90;99.90;;;;;;4960051;28;20376;-77
2023/11/04 01:49:33;;;;;;;6.00;2.13;;;7.80;99.90;;;;;;4945288;28;20214;-76
2023/11/04 01:52:19;;;;;;;11.73;2.10;;;7.80;99.90;;;;;;4963249;28;20049;-76
2023/11/04 01:55:09;;;;;;;8.50;1.63;;;7.80;99.90;;;;;;4956085;28;20034;-77
2023/11/04 01:57:56;;;;;;;9.10;1.90;;;7.80;99.90;;;;;;4971098;28;20047;-77
2023/11/04 02:00:42;;;;;;;7.32;1.80;;;7.80;99.90;;;;;;4977224;28;20542;-77
2023/11/04 02:03:28;;;;;;;8.55;1.60;;;7.70;99.90;;;;;;4976645;28;20038;-77
2023/11/04 02:06:14;;;;;;;7.28;2.53;;;7.80;99.90;;;;;;4945551;28;20130;-77
2023/11/04 02:09:00;;;;;;;6.25;1.50;;;7.70;99.90;;;;;;4932940;28;20126;-77
2023/11/04 02:11:46;;;;;;;7.85;1.83;;;7.60;99.90;;;;;;4944163;28;20376;-77
2023/11/04 02:14:32;;;;;;;9.35;2.13;;;7.60;99.90;;;;;;4970336;28;20053;-77
2023/11/04 02:17:19;;;;;;;9.77;2.13;;;7.60;99.90;;;;;;4963563;28;20460;-77
2023/11/04 02:20:05;;;;;;;5.50;1.63;;;7.60;99.90;;;;;;4944824;29;20484;-77
2023/11/04 02:22:51;;;;;;;11.13;1.90;;;7.60;99.90;;;;;;4950046;28;20035;-77
2023/11/04 02:25:37;;;;;;;7.00;1.70;;;7.50;99.90;;;;;;4962361;28;20074;-77
2023/11/04 02:28:23;;;;;;;6.30;1.52;;;7.50;99.90;;;;;;4931160;29;20036;-77
2023/11/04 02:31:09;;;;;;;8.75;1.90;;;7.50;99.90;;;;;;4944916;28;20464;-77
2023/11/04 02:33:55;;;;;;;10.35;1.75;;;7.50;99.90;;;;;;4974728;28;20364;-77
2023/11/04 02:36:41;;;;;;;6.18;1.73;;;7.50;99.90;;;;;;4975002;28;20053;-76
2023/11/04 02:39:27;;;;;;;9.52;2.20;;;7.50;99.90;;;;;;4976279;28;20038;-77
2023/11/04 02:42:13;;;;;;;7.15;1.58;;;7.60;99.90;;;;;;4952884;28;20426;-77
2023/11/04 02:44:59;;;;;;;6.57;1.33;;;7.60;99.90;;;;;;4956009;28;20043;-77
2023/11/04 02:47:45;;;;;;;9.43;1.83;;;7.60;99.90;;;;;;4975792;28;20132;-77
2023/11/04 02:50:31;;;;;;;7.10;1.75;;;7.50;99.90;;;;;;4956474;29;20468;-77
2023/11/04 02:53:17;;;;;;;5.45;1.52;;;7.60;99.90;;;;;;4942843;29;20050;-77
2023/11/04 02:56:04;;;;;;;6.00;1.50;;;7.50;99.90;;;;;;4932438;28;20130;-77
2023/11/04 02:58:50;;;;;;;7.35;1.38;;;7.50;99.90;;;;;;4958064;28;20049;-77
2023/11/04 03:01:36;;;;;;;5.28;1.90;;;7.50;99.90;;;;;;4976296;28;20150;-77
2023/11/04 03:04:21;;;;;;;9.10;2.20;;;7.40;99.90;;;;;;4975164;28;20038;-77
2023/11/04 03:07:07;;;;;;;6.13;1.30;;;7.50;99.90;;;;;;4946379;29;20753;-76
2023/11/04 03:09:53;;;;;;;7.47;1.55;;;7.50;99.90;;;;;;4941834;29;20472;-76
2023/11/04 03:12:39;;;;;;;7.70;1.80;;;7.50;99.90;;;;;;4965809;28;20041;-76
2023/11/04 03:15:25;;;;;;;6.90;1.85;;;7.50;99.90;;;;;;4976610;28;20035;-76
2023/11/04 03:18:14;;;;;;;5.38;1.30;;;7.50;99.90;;;;;;4962680;28;20049;-76
2023/11/04 03:21:06;;;;;;;8.07;1.77;;;7.50;99.90;;;;;;4964227;28;20117;-77
2023/11/04 03:23:52;;;;;;;4.00;1.27;;;7.50;99.90;;;;;;4961863;28;20078;-77
2023/11/04 03:26:38;;;;;;;7.93;1.45;;;7.50;99.90;;;;;;4975340;28;20491;-77
2023/11/04 03:29:24;;;;;;;7.47;1.58;;;7.50;99.90;;;;;;4962272;28;20046;-77
2023/11/04 03:32:11;;;;;;;9.05;1.50;;;7.50;99.90;;;;;;4960877;28;20505;-76
2023/11/04 03:34:58;;;;;;;7.93;1.52;;;7.50;99.90;;;;;;4960451;28;21168;-77
2023/11/04 03:37:44;;;;;;;5.97;1.33;;;7.50;99.90;;;;;;4957502;28;20109;-77
2023/11/04 03:40:30;;;;;;;3.53;1.10;;;7.50;99.90;;;;;;4970559;28;20042;-77
2023/11/04 03:43:16;;;;;;;7.80;1.45;;;7.50;99.90;;;;;;4969714;28;20109;-77
2023/11/04 03:46:03;;;;;;;5.68;1.42;;;7.50;99.90;;;;;;4949357;29;20043;-77
2023/11/04 03:48:50;;;;;;;5.40;1.13;;;7.50;99.90;;;;;;4955386;28;20085;-77
2023/11/04 03:51:36;;;;;;;6.28;1.20;;;7.50;99.90;;;;;;4974184;28;20042;-76
2023/11/04 03:54:22;;;;;;;5.85;1.40;;;7.50;99.90;;;;;;4961549;28;20038;-77
2023/11/04 03:57:07;;;;;;;6.40;1.05;;;7.50;99.90;;;;;;4974343;28;20199;-76
2023/11/04 03:59:53;;;;;;;9.13;1.45;;;7.60;99.90;;;;;;4947634;28;20042;-76
2023/11/04 04:02:40;;;;;;;6.15;1.20;;;7.50;99.90;;;;;;4970784;28;20046;-76
2023/11/04 04:05:25;;;;;;;9.20;1.85;;;7.50;99.90;;;;;;4958381;28;20050;-76
2023/11/04 04:08:11;;;;;;;6.97;1.40;;;7.50;99.90;;;;;;4951875;28;20422;-75
2023/11/04 04:10:57;;;;;;;8.43;1.45;;;7.50;99.90;;;;;;4960713;28;20125;-76
2023/11/04 04:13:43;;;;;;;6.45;1.48;;;7.50;99.90;;;;;;4929419;29;20039;-76
2023/11/04 04:16:29;;;;;;;6.22;1.38;;;7.50;99.90;;;;;;4962910;28;20506;-76
2023/11/04 04:19:15;;;;;;;3.65;1.20;;;7.60;99.90;;;;;;4974901;28;20345;-77
2023/11/04 04:22:01;;;;;;;6.20;1.50;;;7.60;99.90;;;;;;4961444;28;20472;-77
2023/11/04 04:24:47;;;;;;;7.72;1.52;;;7.50;99.90;;;;;;4975457;28;20043;-76
2023/11/04 04:27:33;;;;;;;6.85;1.17;;;7.50;99.90;;;;;;4947809;28;20464;-77
2023/11/04 04:30:20;;;;;;;6.30;1.17;;;7.60;99.90;;;;;;4954505;28;20047;-76
2023/11/04 04:33:06;;;;;;;5.20;1.48;;;7.60;99.90;;;;;;4965483;28;20125;-76
2023/11/04 04:35:52;;;;;;;7.38;1.55;;;7.60;99.90;;;;;;4951620;29;20050;-77
2023/11/04 04:38:38;;;;;;;4.18;1.70;;;7.60;99.90;;;;;;4941960;29;20086;-77
2023/11/04 04:41:26;;;;;;;4.20;1.50;;;7.60;99.90;;;;;;4954019;28;20434;-76
2023/11/04 04:44:12;;;;;;;4.43;1.58;;;7.60;99.90;;;;;;4973197;28;20034;-77
2023/11/04 04:46:58;;;;;;;4.72;1.20;;;7.60;99.90;;;;;;4974131;28;20468;-77
2023/11/04 04:49:44;;;;;;;3.30;1.05;;;7.70;99.90;;;;;;4973019;28;20050;-77
2023/11/04 04:52:31;;;;;;;3.55;1.73;;;7.70;99.90;;;;;;4948343;28;20538;-77
2023/11/04 04:55:16;;;;;;;5.38;1.33;;;7.70;99.90;;;;;;4974356;28;20038;-77
2023/11/04 04:58:02;;;;;;;3.72;1.02;;;7.70;99.90;;;;;;4956394;28;20046;-77
2023/11/04 05:00:48;;;;;;;4.68;1.30;;;7.60;99.90;;;;;;4954602;28;20038;-77
2023/11/04 05:03:34;;;;;;;4.72;1.70;;;7.60;99.90;;;;;;4946647;29;20043;-76
2023/11/04 05:06:20;;;;;;;2.50;1.17;;;7.70;99.90;;;;;;4947979;29;20038;-77
2023/11/04 05:09:06;;;;;;;5.82;1.38;;;7.70;99.90;;;;;;4974005;28;20039;-76
2023/11/04 05:11:52;;;;;;;2.88;1.23;;;7.60;99.90;;;;;;4977597;28;20105;-77
2023/11/04 05:14:38;;;;;;;5.03;1.02;;;7.60;99.90;;;;;;4964799;28;20094;-76
2023/11/04 05:17:25;;;;;;;4.55;1.17;;;7.70;99.90;;;;;;4966648;28;20383;-77
2023/11/04 05:20:11;;;;;;;7.22;1.58;;;7.60;99.90;;;;;;4968978;28;20079;-77
2023/11/04 05:22:57;;;;;;;3.67;1.10;;;7.60;99.90;;;;;;4951163;28;20046;-76
2023/11/04 05:25:44;;;;;;;3.65;1.20;;;7.60;99.90;;;;;;4964758;28;20363;-76
2023/11/04 05:28:31;;;;;;;4.35;1.10;;;7.60;99.90;;;;;;4959667;28;20082;-77
2023/11/04 05:31:17;;;;;;;4.30;1.10;;;7.70;99.90;;;;;;4944954;29;20050;-76
2023/11/04 05:34:03;;;;;;;3.78;1.00;;;7.60;99.90;;;;;;4967323;28;20099;-76
2023/11/04 05:36:51;;;;;;;4.22;1.08;;;7.70;99.90;;;;;;4962955;28;20039;-76
2023/11/04 05:39:37;;;;;;;4.38;1.20;;;7.60;99.90;;;;;;4969767;28;20626;-77
2023/11/04 05:42:23;;;;;;;5.38;1.33;;;7.70;99.90;;;;;;4951022;28;20093;-76
2023/11/04 05:45:09;;;;;;;4.47;1.10;;;7.70;99.90;;;;;;4976200;28;20039;-76
2023/11/04 05:47:55;;;;;;;2.17;1.10;;;7.70;99.90;;;;;;4953275;28;20039;-76
2023/11/04 05:50:41;;;;;;;3.72;1.20;;;7.70;99.90;;;;;;4957970;29;20150;-76
2023/11/04 05:53:27;;;;;;;4.60;0.95;;;7.70;99.90;;;;;;4934200;28;20039;-77
2023/11/04 05:56:17;;;;;;;6.60;1.30;;;7.70;99.90;;;;;;4973896;28;20352;-76
2023/11/04 05:59:03;;;;;;;4.55;1.20;;;7.70;99.90;;;;;;4973750;28;20047;-76
2023/11/04 06:01:51;;;;;;;3.40;0.90;;;7.80;99.90;;;;;;4946275;28;20040;-76
2023/11/04 06:04:37;;;;;;;3.53;1.40;;;7.70;99.90;;;;;;4951677;28;20034;-77
2023/11/04 06:07:23;;;;;;;4.63;1.05;;;7.70;99.90;;;;;;4976251;28;20097;-77
2023/11/04 06:10:09;;;;;;;3.10;1.20;;;7.70;99.90;;;;;;4963539;28;20030;-77
2023/11/04 06:12:55;;;;;;;3.50;1.00;;;7.70;99.90;;;;;;4963342;28;20035;-77
2023/11/04 06:15:41;;;;;;;4.88;0.93;;;7.60;99.90;;;;;;4975181;28;20035;-77
2023/11/04 06:18:27;;;;;;;5.57;1.35;;;7.60;99.90;;;;;;4975728;28;20093;-77
2023/11/04 06:21:16;;;;;;;2.13;0.93;;;7.60;99.90;;;;;;4962399;28;20035;-76
2023/11/04 06:24:02;;;;;;;2.42;1.08;;;7.60;99.90;;;;;;4975378;28;20035;-76
2023/11/04 06:26:48;;;;;;;4.05;1.33;;;7.50;99.90;;;;;;4949180;28;20478;-77
2023/11/04 06:29:34;;;;;;;4.32;1.27;;;7.50;99.90;;;;;;4976767;28;20050;-77
2023/11/04 06:32:20;;;;;;;5.28;1.50;;;7.50;99.90;;;;;;4973420;28;20035;-76
2023/11/04 06:35:07;;;;;;;3.35;1.13;;;7.50;99.90;;;;;;4977480;28;20050;-76
2023/11/04 06:37:52;;;;;;;2.80;1.15;;;7.50;99.90;;;;;;4950092;28;20137;-77
2023/11/04 06:40:38;;;;;;;7.68;1.20;;;7.50;99.90;;;;;;4963846;28;20034;-77
2023/11/04 06:43:29;;;;;;;2.40;1.10;;;7.50;99.90;;;;;;4972475;28;20480;-77
2023/11/04 06:46:15;;;;;;;2.25;1.02;;;7.50;99.90;;;;;;4960364;28;20081;-76
2023/11/04 06:49:02;;;;;;;3.28;1.30;;;7.60;99.90;;;;;;4947492;29;20047;-76
2023/11/04 06:51:48;;;;;;;2.53;0.93;;;7.60;99.90;;;;;;4963479;28;20035;-76
2023/11/04 06:54:34;;;;;;;2.17;0.90;;;7.60;99.90;;;;;;4944683;28;20066;-76
2023/11/04 06:57:20;;;;;;;2.40;1.20;;;7.60;99.90;;;;;;4967446;28;20050;-76
2023/11/04 07:00:08;;;;;;;3.30;1.00;;;7.60;99.90;;;;;;4957303;29;20126;-76
2023/11/04 07:02:54;;;;;;;;;;;7.60;99.90;;;;;;4973760;28;20498;-76
2023/11/04 07:05:40;;;;;;;1.85;1.00;;;7.60;99.90;;;;;;4970308;28;19969;-76
2023/11/04 07:08:27;;;;;;;2.10;0.98;;;7.70;99.90;;;;;;4964049;28;20034;-76
2023/11/04 07:11:14;;;;;;;2.05;0.98;;;7.70;99.90;;;;;;4961596;28;20190;-76
2023/11/04 07:14:01;;;;;;;3.03;0.98;;;7.70;99.90;;;;;;4966534;28;20495;-76
2023/11/04 07:16:47;;;;;;;4.55;1.15;;;7.80;99.90;;;;;;4975096;28;20495;-76
2023/11/04 07:19:33;;;;;;;2.22;1.08;;;7.80;99.90;;;;;;4974228;28;20054;-76
2023/11/04 07:22:19;;;;;;;2.00;0.88;;;7.90;99.90;;;;;;4975794;28;20035;-76
2023/11/04 07:25:06;;;;;;;3.28;1.10;;;7.90;99.90;;;;;;4951325;28;20045;-76
2023/11/04 07:27:52;;;;;;;3.17;1.13;;;7.90;99.90;;;;;;4960243;28;20375;-76
2023/11/04 07:30:38;;;;;;;2.97;1.20;;;8.00;99.90;;;;;;4959165;28;20046;-76
2023/11/04 07:33:24;;;;;;;3.63;1.20;;;8.00;99.90;;;;;;4934705;28;20476;-74
2023/11/04 07:36:10;;;;;;;4.03;1.00;;;8.00;99.90;;;;;;4965432;28;20218;-75
2023/11/04 07:38:56;;;;;;;2.63;0.95;;;8.00;99.90;;;;;;4973668;28;20043;-74
2023/11/04 07:41:42;;;;;;;2.08;0.80;;;8.00;99.90;;;;;;4947189;28;20074;-74
2023/11/04 07:44:29;;;;;;;1.80;0.98;;;8.10;99.90;;;;;;4947186;28;20716;-75
2023/11/04 07:47:15;;;;;;;12.90;1.10;;;8.10;99.90;;;;;;4958089;28;20050;-75
2023/11/04 07:50:01;;;;;;;1.73;0.80;;;8.10;99.90;;;;;;4938193;28;20051;-75
2023/11/04 07:52:48;;;;;;;2.80;1.00;;;8.20;99.90;;;;;;4949434;28;20488;-76
2023/11/04 07:55:34;;;;;;;1.58;0.93;;;8.20;99.90;;;;;;4973128;28;20066;-76
2023/11/04 07:58:24;;;;;;;2.72;0.90;;;8.20;99.90;;;;;;4974382;28;20042;-76
2023/11/04 08:01:19;;;;;;;2.65;1.23;;;8.30;99.90;;;;;;4960931;28;20495;-76
2023/11/04 08:04:08;;;;;;;2.50;1.10;;;8.30;99.90;;;;;;4958679;28;20397;-75
2023/11/04 08:06:54;;;;;;;2.53;0.80;;;8.40;99.90;;;;;;4973204;28;20034;-75
2023/11/04 08:09:41;;;;;;;2.03;0.88;;;8.50;99.90;;;;;;4974292;28;20472;-76
2023/11/04 08:12:27;;;;;;;2.15;0.88;;;8.50;99.90;;;;;;4963515;28;20046;-76
2023/11/04 08:15:13;;;;;;;1.90;1.00;;;8.60;99.90;;;;;;4974106;28;20042;-75
2023/11/04 08:17:59;;;;;;;1.67;0.80;;;8.70;99.90;;;;;;4972489;28;20042;-76
2023/11/04 08:20:47;;;;;;;1.63;0.95;;;8.80;99.90;;;;;;4974720;28;20038;-76
2023/11/04 08:23:33;;;;;;;3.45;0.85;;;8.90;99.90;;;;;;4965689;28;20043;-75
2023/11/04 08:26:19;;;;;;;3.15;0.68;;;8.90;99.90;;;;;;4955777;28;20127;-75
2023/11/04 08:29:05;;;;;;;2.60;1.30;;;9.00;99.90;;;;;;4951088;28;20085;-75
2023/11/04 08:31:51;;;;;;;1.67;0.80;;;9.00;99.90;;;;;;4965363;28;20046;-76
2023/11/04 08:34:37;;;;;;;1.02;0.60;;;9.10;99.90;;;;;;4974338;28;20097;-76
2023/11/04 08:37:23;;;;;;;2.65;1.50;;;9.20;99.90;;;;;;4971029;28;20143;-75
2023/11/04 08:40:10;;;;;;;2.22;0.73;;;9.20;99.90;;;;;;4962295;28;20050;-75
2023/11/04 08:42:56;;;;;;;0.90;0.60;;;9.30;99.90;;;;;;4964463;28;20049;-75
2023/11/04 08:45:42;;;;;;;1.60;0.73;;;9.30;99.90;;;;;;4965278;28;20039;-75
2023/11/04 08:48:28;;;;;;;1.98;0.80;;;9.40;99.90;;;;;;4964100;28;20108;-76
2023/11/04 08:51:13;;;;;;;1.67;0.80;;;9.50;99.90;;;;;;4948562;29;20133;-76
2023/11/04 08:53:59;;;;;;;2.30;0.80;;;9.50;99.90;;;;;;4954322;28;20047;-76
2023/11/04 08:56:48;;;;;;;1.27;0.70;;;9.60;99.90;;;;;;4976637;28;20403;-76
2023/11/04 08:59:34;;;;;;;;;;;9.70;99.90;;;;;;4959927;28;20046;-75
2023/11/04 09:02:20;;;;;;;2.60;0.70;;;9.80;99.90;;;;;;4964513;28;20017;-75
2023/11/04 09:05:08;;;;;;;1.20;0.80;;;9.80;99.90;;;;;;4974143;28;20035;-75
2023/11/04 09:07:54;;;;;;;2.58;0.70;;;9.90;99.90;;;;;;4963571;28;20046;-76
2023/11/04 09:10:40;;;;;;;1.95;0.50;;;10.00;99.90;;;;;;4947950;28;20070;-75
2023/11/04 09:13:27;;;;;;;1.77;0.50;;;10.00;99.90;;;;;;4963719;28;20046;-75
2023/11/04 09:16:13;;;;;;;1.77;0.80;;;10.00;99.90;;;;;;4963528;28;20114;-75
2023/11/04 09:19:00;;;;;;;1.25;0.60;;;10.10;99.90;;;;;;4972282;28;20388;-75
2023/11/04 09:21:46;;;;;;;1.88;0.90;;;10.10;99.90;;;;;;4943526;29;20039;-76
2023/11/04 09:24:32;;;;;;;2.45;1.48;;;10.30;99.90;;;;;;4937734;28;20044;-75
2023/11/04 09:27:18;;;;;;;1.80;0.65;;;10.30;99.90;;;;;;4943966;28;20047;-75
2023/11/04 09:30:04;;;;;;;3.63;0.77;;;10.30;99.90;;;;;;4958040;28;20363;-75
2023/11/04 09:32:50;;;;;;;1.25;0.70;;;10.30;99.90;;;;;;4965324;28;20038;-75
2023/11/04 09:35:36;;;;;;;1.90;0.70;;;10.30;99.90;;;;;;4960116;28;20053;-75
2023/11/04 09:38:25;;;;;;;2.08;0.88;;;10.40;99.90;;;;;;4956666;28;20061;-75
2023/11/04 09:41:11;;;;;;;1.83;0.60;;;10.50;99.90;;;;;;4949512;28;20038;-75
2023/11/04 09:43:57;;;;;;;2.72;0.70;;;10.60;99.90;;;;;;4975321;28;20475;-75
2023/11/04 09:46:44;;;;;;;2.20;0.80;;;10.70;99.90;;;;;;4974318;28;20145;-75
2023/11/04 09:49:29;;;;;;;1.15;0.60;;;10.80;99.90;;;;;;4961455;28;20074;-76
2023/11/04 09:52:15;;;;;;;3.15;0.68;;;10.70;99.90;;;;;;4967105;28;20042;-75
2023/11/04 09:55:01;;;;;;;2.08;0.75;;;10.80;99.90;;;;;;4966128;28;20051;-76
2023/11/04 09:57:48;;;;;;;2.47;0.70;;;10.90;99.90;;;;;;4969462;28;20050;-75
2023/11/04 10:00:36;;;;;;;2.63;0.90;;;11.10;99.90;;;;;;4954661;28;20109;-75
2023/11/04 10:03:22;;;;;;;2.47;0.70;;;11.20;99.90;;;;;;4971516;28;20547;-75
2023/11/04 10:06:08;;;;;;;1.23;0.60;;;11.40;99.90;;;;;;4953710;28;20337;-75
2023/11/04 10:08:54;;;;;;;1.00;0.60;;;11.40;99.90;;;;;;4955047;28;20484;-75
2023/11/04 10:11:40;;;;;;;0.90;0.60;;;11.60;99.90;;;;;;4954864;28;20046;-75
2023/11/04 10:14:26;;;;;;;2.88;0.68;;;11.70;99.90;;;;;;4961466;28;20487;-76
2023/11/04 10:17:13;;;;;;;2.25;0.80;;;12.00;99.90;;;;;;4957886;28;20153;-75
2023/11/04 10:19:59;;;;;;;1.80;0.50;;;12.30;99.90;;;;;;4932094;28;1176639;-75
2023/11/04 10:22:45;;;;;;;1.05;0.60;;;12.50;99.90;;;;;;4959863;28;20050;-76
2023/11/04 10:25:31;;;;;;;3.45;1.00;;;12.70;99.90;;;;;;4948133;28;20039;-76
2023/11/04 10:28:18;;;;;;;1.80;1.13;;;13.00;99.90;;;;;;4964809;28;20049;-76
2023/11/04 10:31:05;;;;;;;1.30;0.60;;;13.20;99.90;;;;;;4949785;28;20484;-76
2023/11/04 10:33:52;;;;;;;1.67;0.73;;;13.40;99.90;;;;;;4940019;29;20065;-75
2023/11/04 10:36:38;;;;;;;1.98;0.70;;;13.80;99.90;;;;;;4972863;28;20076;-75
2023/11/04 10:39:24;;;;;;;1.65;0.77;;;13.70;99.90;;;;;;4960384;28;20070;-75
2023/11/04 10:42:11;;;;;;;2.28;0.73;;;13.60;99.90;;;;;;4946950;29;20683;-76
2023/11/04 10:44:58;;;;;;;1.63;0.60;;;14.00;99.90;;;;;;4942547;28;20035;-76
2023/11/04 10:48:03;;;;;;;1.95;0.63;;;14.40;99.90;;;;;;4949974;28;20038;-76
2023/11/04 10:50:53;;;;;;;2.67;0.70;;;14.40;99.90;;;;;;4960820;28;20109;-76
2023/11/04 10:53:41;;;;;;;2.67;0.75;;;14.20;99.90;;;;;;4948231;28;20486;-76
2023/11/04 10:56:33;;;;;;;1.02;0.55;;;15.20;99.90;;;;;;4962222;28;20043;-76
2023/11/04 10:59:39;;;;;;;1.88;0.68;;;15.60;98.90;;;;;;4961083;28;20047;-76
2023/11/04 11:02:24;;;;;;;4.68;0.70;;;15.10;98.50;;;;;;4969480;28;20077;-76
2023/11/04 11:05:15;;;;;;;2.58;0.60;;;15.10;99.10;;;;;;4972846;28;20035;-75
2023/11/04 11:08:00;;;;;;;1.48;0.75;;;15.30;98.90;;;;;;4969333;28;20046;-75
2023/11/04 11:10:50;;;;;;;1.50;0.73;;;14.40;99.00;;;;;;4958788;28;20070;-76
2023/11/04 11:13:37;;;;;;;1.35;0.70;;;13.90;99.70;;;;;;4947665;28;20449;-75
2023/11/04 11:16:24;;;;;;;1.35;0.68;;;14.00;99.70;;;;;;4975683;28;20110;-76
2023/11/04 11:19:10;;;;;;;1.08;0.60;;;14.10;99.60;;;;;;4954708;29;20089;-76
2023/11/04 11:21:56;;;;;;;2.20;0.60;;;14.50;99.60;;;;;;4955377;28;20035;-75
2023/11/04 11:24:50;;;;;;;1.83;0.80;;;14.80;99.20;;;;;;4948098;28;20086;-75
2023/11/04 11:27:44;;;;;;;4.07;0.60;;;14.60;98.40;;;;;;4968505;28;20483;-75
2023/11/04 11:30:42;;;;;;;1.80;0.60;;;13.80;99.50;;;;;;4957005;28;20479;-75
2023/11/04 11:33:28;;;;;;;2.22;0.63;;;13.20;99.90;;;;;;4959543;28;20057;-75
2023/11/04 11:36:14;;;;;;;1.77;0.57;;;13.60;99.90;;;;;;4941600;28;20082;-75
2023/11/04 11:39:01;;;;;;;1.13;0.50;;;13.50;99.90;;;;;;4941318;29;20459;-75
2023/11/04 11:41:48;;;;;;;3.08;0.65;;;13.00;99.90;;;;;;4970747;28;20173;-75
2023/11/04 11:44:34;;;;;;;1.00;0.45;;;12.80;99.90;;;;;;4958375;28;20341;-75
2023/11/04 11:47:20;;;;;;;3.97;0.63;;;12.60;99.90;;;;;;4945000;29;20042;-75
2023/11/04 11:50:06;;;;;;;1.58;0.40;;;12.40;99.90;;;;;;4966960;28;20190;-74
2023/11/04 11:52:52;;;;;;;2.03;0.80;;;12.30;99.90;;;;;;4973770;28;20372;-75
2023/11/04 11:55:39;;;;;;;3.45;1.15;;;12.20;99.90;;;;;;4939172;28;20451;-75
2023/11/04 11:58:27;;;;;;;3.78;0.90;;;12.10;99.90;;;;;;4960625;28;20940;-75
2023/11/04 12:01:14;;;;;;;1.55;0.50;;;12.00;99.90;;;;;;4960773;28;20042;-76
2023/11/04 12:04:01;;;;;;;1.42;0.50;;;11.90;99.90;;;;;;4960601;28;20045;-76
2023/11/04 12:06:52;;;;;;;1.10;0.55;;;12.00;99.90;;;;;;4960548;28;20034;-75
2023/11/04 12:09:40;;;;;;;3.30;0.60;;;12.00;99.90;;;;;;4960937;28;20085;-75
2023/11/04 12:12:26;;;;;;;2.50;0.70;;;12.40;99.90;;;;;;4974098;28;20046;-75
2023/11/04 12:15:46;;;;;;;;;;;;;;;;;;;;;
2023/11/04 12:18:59;;;;;;;1.60;0.73;;;13.00;99.90;;;;;;4963881;28;20484;-75
2023/11/04 12:21:44;;;;;;;1.17;0.50;;;13.60;99.90;;;;;;4958075;28;20042;-75
2023/11/04 12:24:30;;;;;;;0.88;0.50;;;14.10;99.90;;;;;;4968174;28;20363;-74
2023/11/04 12:27:16;;;;;;;1.00;0.70;;;14.00;99.90;;;;;;4955508;28;20076;-74
2023/11/04 12:30:03;;;;;;;2.33;0.50;;;13.80;99.90;;;;;;4955781;28;20549;-73
2023/11/04 12:32:52;;;;;;;0.87;0.50;;;13.90;99.90;;;;;;4995161;28;20034;-74
2023/11/04 12:35:38;;;;;;;;;;;13.60;99.90;;;;;;4936506;28;20324;-74
2023/11/04 12:38:24;;;;;;;1.80;0.73;;;14.00;99.90;;;;;;4948784;28;19914;-74
2023/11/04 12:41:11;;;;;;;1.35;0.57;;;13.90;99.90;;;;;;4959472;28;20112;-74
2023/11/04 12:44:01;;;;;;;0.93;0.50;;;14.00;99.90;;;;;;4969320;28;20042;-74
2023/11/04 12:46:49;;;;;;;1.33;0.50;;;13.90;99.90;;;;;;4960618;28;20427;-73
2023/11/04 12:49:36;;;;;;;1.50;0.55;;;13.60;99.90;;;;;;4993643;28;20129;-73
2023/11/04 12:52:22;;;;;;;0.95;0.50;;;13.20;99.90;;;;;;4967749;28;20113;-73
2023/11/04 12:55:08;;;;;;;1.45;0.50;;;13.20;99.90;;;;;;4981962;28;20045;-73
2023/11/04 12:57:54;;;;;;;1.85;0.60;;;13.10;99.90;;;;;;4981108;28;20046;-74
2023/11/04 13:00:40;;;;;;;1.00;0.52;;;13.00;99.90;;;;;;4978756;28;20348;-73
2023/11/04 13:03:28;;;;;;;2.28;0.50;;;12.90;99.90;;;;;;4948368;28;20058;-74
2023/11/04 13:06:15;;;;;;;;;;;12.90;99.90;;;;;;4966363;28;20038;-74
2023/11/04 13:09:01;;;;;;;2.22;0.50;;;12.90;99.90;;;;;;4979355;28;19937;-74
2023/11/04 13:11:47;;;;;;;1.25;0.40;;;12.90;99.90;;;;;;4974694;28;20070;-73
2023/11/04 13:14:33;;;;;;;0.68;0.55;;;12.70;99.90;;;;;;4962350;28;20035;-73
2023/11/04 13:17:19;;;;;;;1.90;0.60;;;12.70;99.90;;;;;;4956704;28;20038;-74
2023/11/04 13:20:09;;;;;;;1.45;0.80;;;12.40;99.90;;;;;;4958431;28;20391;-73
2023/11/04 13:22:55;;;;;;;1.17;0.70;;;12.40;99.90;;;;;;4965621;28;20369;-74
2023/11/04 13:25:44;;;;;;;2.63;0.70;;;12.30;99.90;;;;;;4965049;28;20047;-74
2023/11/04 13:28:30;;;;;;;2.25;0.95;;;12.20;99.90;;;;;;4964904;28;20129;-73
2023/11/04 13:31:16;;;;;;;3.58;0.70;;;12.30;99.90;;;;;;4964448;28;20053;-74
2023/11/04 13:34:03;;;;;;;2.25;0.60;;;12.20;99.90;;;;;;4978778;28;20042;-73
2023/11/04 13:36:49;;;;;;;1.75;0.80;;;12.20;99.90;;;;;;4979020;28;20057;-74
2023/11/04 13:39:35;;;;;;;3.03;0.65;;;12.40;99.90;;;;;;4963850;28;20129;-74
2023/11/04 13:42:21;;;;;;;1.25;0.75;;;12.40;99.90;;;;;;4932933;28;20039;-74
2023/11/04 13:45:07;;;;;;;1.30;0.70;;;12.50;99.90;;;;;;4944427;29;20050;-74
2023/11/04 13:47:53;;;;;;;1.05;0.65;;;12.20;99.90;;;;;;4981114;28;20104;-74
2023/11/04 13:50:39;;;;;;;2.45;0.60;;;12.20;99.90;;;;;;4949575;28;20042;-73
2023/11/04 13:53:25;;;;;;;1.55;0.60;;;12.00;99.90;;;;;;4959271;28;20065;-73
2023/11/04 13:56:11;;;;;;;2.05;0.63;;;11.80;99.90;;;;;;4960459;28;20035;-74
2023/11/04 13:58:57;;;;;;;3.25;0.60;;;11.70;99.90;;;;;;4949751;28;20078;-73
2023/11/04 14:01:45;;;;;;;1.75;0.80;;;11.70;99.90;;;;;;4948991;28;20042;-73
2023/11/04 14:04:32;;;;;;;1.25;0.80;;;11.40;99.90;;;;;;4957631;28;20121;-73
2023/11/04 14:07:19;;;;;;;2.78;0.70;;;11.40;99.90;;;;;;4961250;28;20085;-74
2023/11/04 14:10:08;;;;;;;2.03;0.68;;;11.30;99.90;;;;;;4955091;28;20178;-74
2023/11/04 14:12:54;;;;;;;1.38;0.60;;;11.10;99.90;;;;;;4950645;28;20349;-74
2023/11/04 14:15:40;;;;;;;3.42;1.00;;;11.20;99.90;;;;;;4951992;28;20081;-74
2023/11/04 14:18:26;;;;;;;1.70;0.60;;;11.10;99.90;;;;;;4956012;28;20621;-74
2023/11/04 14:21:12;;;;;;;1.70;0.70;;;11.00;99.90;;;;;;4972762;28;20042;-74
2023/11/04 14:23:59;;;;;;;4.53;1.15;;;11.00;99.90;;;;;;4978718;28;20042;-74
2023/11/04 14:26:45;;;;;;;2.97;0.50;;;10.90;99.90;;;;;;4963959;28;20372;-74
2023/11/04 14:29:31;;;;;;;2.30;1.02;;;10.90;99.90;;;;;;4987743;28;20124;-75
2023/11/04 14:32:17;;;;;;;2.05;0.60;;;11.00;99.90;;;;;;4982390;28;20038;-74
2023/11/04 14:35:05;;;;;;;0.95;0.60;;;10.90;99.90;;;;;;4962157;28;20445;-74
2023/11/04 14:37:51;;;;;;;1.30;0.60;;;10.90;99.90;;;;;;4970490;28;20049;-74